This is the latest recevied weather packets stored in our database for station/object LU8FJH-13. If no packets are shown the sender has not sent any weather packets the latest 10 day(s).
| Time | Temp. | Humidity | Pressure | Rain* | Wind** | Luminosity | Snow |
|---|---|---|---|---|---|---|---|
| 1777906678 | 23.33° C | 42% | 1012.9 hPa | 0 mm | - | - | - |
| 1777906138 | 22.78° C | 42% | 1012.8 hPa | 0 mm | - | - | - |
| 1777905599 | 22.78° C | 46% | 1012.8 hPa | 0 mm | - | - | - |
| 1777905058 | 20.56° C | 50% | 1012.7 hPa | 0 mm | - | - | - |
| 1777904519 | 19.44° C | 52% | 1012.8 hPa | 0 mm | - | - | - |
| 1777903978 | 18.89° C | 53% | 1012.7 hPa | 0 mm | - | - | - |
| 1777903438 | 18.89° C | 54% | 1012.8 hPa | 0 mm | - | - | - |
| 1777902898 | 18.89° C | 54% | 1012.5 hPa | 0 mm | - | - | - |
| 1777902358 | 18.33° C | 55% | 1012.7 hPa | 0 mm | - | - | - |
| 1777901818 | 17.78° C | 55% | 1012.7 hPa | 0 mm | - | - | - |
| 1777901278 | 16.67° C | 59% | 1012.8 hPa | 0 mm | - | - | - |
| 1777900738 | 15.56° C | 62% | 1012.6 hPa | 0 mm | - | - | - |
| 1777900198 | 15.56° C | 61% | 1012.9 hPa | 0 mm | - | - | - |
| 1777899658 | 15.56° C | 60% | 1012.7 hPa | 0 mm | - | - | - |
| 1777899119 | 15.56° C | 59% | 1013 hPa | 0 mm | - | - | - |
| 1777898578 | 15° C | 57% | 1013 hPa | 0 mm | - | - | - |
| 1777898038 | 16.67° C | 54% | 1013 hPa | 0 mm | - | - | - |
| 1777897498 | 16.11° C | 58% | 1012.9 hPa | 0 mm | - | - | - |
| 1777896958 | 15° C | 62% | 1013.3 hPa | 0 mm | - | - | - |
| 1777896418 | 14.44° C | 62% | 1012.9 hPa | 0 mm | - | - | - |
| 1777895878 | 15° C | 60% | 1012.7 hPa | 0 mm | - | - | - |
| 1777895338 | 15° C | 63% | 1012.9 hPa | 0 mm | - | - | - |
| 1777894798 | 13.89° C | 71% | 1012.9 hPa | 0 mm | - | - | - |
| 1777894258 | 12.22° C | 74% | 1013 hPa | 0 mm | - | - | - |
| 1777893718 | 11.11° C | 77% | 1012.9 hPa | 0 mm | - | - | - |
* Rain latest hour (hover to see other rain measurements)
** Current wind speed in m/s (hover to see current wind gust speed)